Time;durP1;ratioP1;P1;durP2;ratioP2;P2;SDS_P1;SDS_P2;PMS_P1;PMS_P2;Temp;Humidity;BMP_temperature;BMP_pressure;BME280_temperature;BME280_humidity;BME280_pressure;Samples;Min_cycle;Max_cycle;Signal;HPM_P1;HPM_P2
2023/05/18 00:00:21;;;;;;;7.63;3.13;;;17.30;68.70;;;;;;7385556;19;20025;-75
2023/05/18 00:02:49;;;;;;;9.13;3.23;;;17.30;68.80;;;;;;7387911;19;20010;-74
2023/05/18 00:05:19;;;;;;;6.30;3.03;;;17.30;69.10;;;;;;7387497;19;20031;-73
2023/05/18 00:07:48;;;;;;;10.07;3.33;;;17.30;69.40;;;;;;7403851;19;20010;-73
2023/05/18 00:10:16;;;;;;;9.27;3.20;;;17.30;69.00;;;;;;7384723;19;20003;-73
2023/05/18 00:12:46;;;;;;;13.55;3.30;;;17.20;68.80;;;;;;7384900;19;20011;-74
2023/05/18 00:15:17;;;;;;;10.13;3.30;;;17.20;69.10;;;;;;7384906;19;20010;-74
2023/05/18 00:17:49;;;;;;;7.20;2.80;;;17.20;69.10;;;;;;7385272;19;20006;-73
2023/05/18 00:20:20;;;;;;;10.57;2.85;;;17.10;68.90;;;;;;7385829;19;20330;-74
2023/05/18 00:22:49;;;;;;;7.70;2.60;;;17.20;69.10;;;;;;7405666;19;20026;-73
2023/05/18 00:25:18;;;;;;;7.38;2.63;;;17.10;68.80;;;;;;7384587;19;20006;-73
2023/05/18 00:27:48;;;;;;;11.30;3.38;;;17.10;69.10;;;;;;7384467;19;20250;-74
2023/05/18 00:30:20;;;;;;;10.25;3.15;;;17.10;68.90;;;;;;7384406;19;20035;-73
2023/05/18 00:32:51;;;;;;;10.77;3.17;;;17.10;69.30;;;;;;7383448;19;19998;-77
2023/05/18 00:35:20;;;;;;;11.57;3.40;;;17.00;69.50;;;;;;7384574;19;20018;-76
2023/05/18 00:37:49;;;;;;;11.88;3.13;;;17.00;69.80;;;;;;7406289;19;20262;-74
2023/05/18 00:40:18;;;;;;;9.52;3.20;;;17.00;69.70;;;;;;7384155;19;20014;-70
2023/05/18 00:42:47;;;;;;;8.93;3.28;;;17.00;69.80;;;;;;7384087;19;20117;-71
2023/05/18 00:45:15;;;;;;;11.52;3.03;;;17.00;69.90;;;;;;7384257;19;20006;-70
2023/05/18 00:47:47;;;;;;;6.47;3.13;;;17.00;70.10;;;;;;7385038;19;20011;-70
2023/05/18 00:50:16;;;;;;;18.10;3.28;;;17.00;70.10;;;;;;7386995;19;20026;-71
2023/05/18 00:52:46;;;;;;;15.95;3.60;;;17.00;69.80;;;;;;7409746;19;20226;-70
2023/05/18 00:55:15;;;;;;;10.35;3.42;;;17.00;70.00;;;;;;7387812;19;20010;-71
2023/05/18 00:57:44;;;;;;;15.38;3.28;;;17.00;70.10;;;;;;7383775;19;20412;-71
2023/05/18 01:00:15;;;;;;;10.68;3.00;;;16.90;70.00;;;;;;7383138;19;20002;-72
2023/05/18 01:02:49;;;;;;;12.48;3.17;;;16.90;70.00;;;;;;7381801;19;20267;-71
2023/05/18 01:05:20;;;;;;;8.32;3.03;;;16.80;69.90;;;;;;7384137;19;20020;-73
2023/05/18 01:07:50;;;;;;;11.88;2.80;;;16.90;70.20;;;;;;7405379;19;20062;-72
2023/05/18 01:10:21;;;;;;;10.90;2.97;;;16.80;70.10;;;;;;7382505;19;20018;-71
2023/05/18 01:12:55;;;;;;;15.18;3.63;;;16.80;70.10;;;;;;7377342;19;20252;-71
2023/05/18 01:15:31;;;;;;;12.20;3.35;;;16.80;70.30;;;;;;7377075;19;20382;-71
2023/05/18 01:18:16;;;;;;;8.45;3.20;;;16.80;70.20;;;;;;7378171;19;20011;-71
2023/05/18 01:20:49;;;;;;;10.60;3.08;;;16.80;70.00;;;;;;7385286;19;20018;-71
2023/05/18 01:23:32;;;;;;;8.95;2.63;;;16.80;70.30;;;;;;7385281;19;20231;-71
2023/05/18 01:26:15;;;;;;;13.20;3.65;;;16.80;70.40;;;;;;7387817;19;20034;-71
2023/05/18 01:28:47;;;;;;;12.43;3.40;;;16.70;70.50;;;;;;7404080;19;20010;-71
2023/05/18 01:31:16;;;;;;;10.98;3.17;;;16.70;70.50;;;;;;7383327;19;20010;-71
2023/05/18 01:33:45;;;;;;;14.82;3.53;;;16.70;70.50;;;;;;7384708;19;20026;-71
2023/05/18 01:36:14;;;;;;;12.60;3.15;;;16.70;70.80;;;;;;7384384;19;20334;-70
2023/05/18 01:38:44;;;;;;;11.82;3.28;;;16.70;71.20;;;;;;7384455;19;20067;-70
2023/05/18 01:41:20;;;;;;;10.77;2.88;;;16.70;71.30;;;;;;7388033;19;20010;-70
2023/05/18 01:43:57;;;;;;;11.05;3.47;;;16.60;71.40;;;;;;7403801;19;20007;-70
2023/05/18 01:46:42;;;;;;;7.93;3.05;;;16.60;71.40;;;;;;7383955;19;20070;-71
2023/05/18 01:49:15;;;;;;;10.95;3.50;;;16.60;71.80;;;;;;7383709;19;20370;-70
2023/05/18 01:51:47;;;;;;;8.73;3.30;;;16.70;71.60;;;;;;7384098;19;20062;-70
2023/05/18 01:54:19;;;;;;;12.55;3.45;;;16.60;71.70;;;;;;7384320;19;20007;-71
2023/05/18 01:56:54;;;;;;;13.65;3.15;;;16.60;72.20;;;;;;7385752;19;20010;-70
2023/05/18 01:59:25;;;;;;;12.30;3.28;;;16.60;72.30;;;;;;7384116;19;20002;-70
2023/05/18 02:01:55;;;;;;;7.55;3.20;;;16.60;72.50;;;;;;7406832;19;20314;-70
2023/05/18 02:04:24;;;;;;;15.25;3.67;;;16.60;72.70;;;;;;7383379;19;20007;-71
2023/05/18 02:06:54;;;;;;;8.23;2.88;;;16.60;73.00;;;;;;7383218;19;20007;-71
2023/05/18 02:09:22;;;;;;;13.82;3.38;;;16.50;73.30;;;;;;7383548;19;20018;-71
2023/05/18 02:11:54;;;;;;;9.93;3.50;;;16.40;73.40;;;;;;7383584;19;20006;-71
2023/05/18 02:14:22;;;;;;;15.40;3.50;;;16.30;73.60;;;;;;7383545;19;20003;-72
2023/05/18 02:16:51;;;;;;;17.80;3.38;;;16.30;73.80;;;;;;7408553;19;20074;-71
2023/05/18 02:19:20;;;;;;;7.38;3.17;;;16.20;74.10;;;;;;7383118;19;20078;-71
2023/05/18 02:21:49;;;;;;;8.75;3.35;;;16.20;74.20;;;;;;7382151;19;20191;-71
2023/05/18 02:24:18;;;;;;;12.55;3.10;;;16.20;74.30;;;;;;7383086;19;20010;-71
2023/05/18 02:26:46;;;;;;;7.40;3.17;;;16.20;74.40;;;;;;7385138;19;20005;-71
2023/05/18 02:29:18;;;;;;;16.08;4.28;;;16.20;74.40;;;;;;7380495;19;20019;-71
2023/05/18 02:31:46;;;;;;;14.60;3.78;;;16.20;74.50;;;;;;7406116;19;20091;-71
2023/05/18 02:34:15;;;;;;;11.43;3.40;;;16.20;74.50;;;;;;7386251;19;20020;-72
2023/05/18 02:36:44;;;;;;;13.27;3.53;;;16.10;74.30;;;;;;7382411;19;20006;-71
2023/05/18 02:39:14;;;;;;;10.38;3.58;;;16.10;74.50;;;;;;7383058;19;19999;-71
2023/05/18 02:41:42;;;;;;;10.43;3.67;;;16.10;74.40;;;;;;7383228;19;20011;-71
2023/05/18 02:44:11;;;;;;;16.33;3.60;;;16.10;74.60;;;;;;7380089;19;20361;-70
2023/05/18 02:46:43;;;;;;;12.02;4.13;;;16.10;74.60;;;;;;7401431;19;20007;-71
2023/05/18 02:49:11;;;;;;;9.50;3.60;;;15.90;75.50;;;;;;7382109;19;20287;-71
2023/05/18 02:51:40;;;;;;;14.90;3.80;;;15.90;75.00;;;;;;7382895;19;20002;-71
2023/05/18 02:54:09;;;;;;;17.70;3.75;;;15.90;75.30;;;;;;7382417;19;20058;-71
2023/05/18 02:56:40;;;;;;;11.48;3.83;;;15.80;75.60;;;;;;7383508;19;20062;-71
2023/05/18 02:59:09;;;;;;;10.00;3.40;;;15.80;75.90;;;;;;7382461;19;20014;-71
2023/05/18 03:01:39;;;;;;;8.75;3.30;;;15.80;76.10;;;;;;7403768;19;20023;-71
2023/05/18 03:04:12;;;;;;;11.20;3.85;;;15.70;76.10;;;;;;7380903;19;20007;-71
2023/05/18 03:06:41;;;;;;;8.98;3.65;;;15.70;76.30;;;;;;7381581;19;20047;-71
2023/05/18 03:09:10;;;;;;;14.18;4.35;;;15.60;76.70;;;;;;7382492;19;20030;-71
2023/05/18 03:11:39;;;;;;;16.58;4.60;;;15.50;76.90;;;;;;7383934;19;20007;-71
2023/05/18 03:14:07;;;;;;;18.42;4.55;;;15.40;77.10;;;;;;7383212;19;20027;-71
2023/05/18 03:16:37;;;;;;;15.00;4.07;;;15.30;77.40;;;;;;7401009;19;20034;-71
2023/05/18 03:19:06;;;;;;;16.67;4.25;;;15.30;77.80;;;;;;7381106;19;20010;-70
2023/05/18 03:21:37;;;;;;;10.32;3.58;;;15.20;77.90;;;;;;7380875;19;20070;-71
2023/05/18 03:24:07;;;;;;;17.88;3.75;;;15.20;78.20;;;;;;7382724;19;20030;-71
2023/05/18 03:26:38;;;;;;;13.50;3.65;;;15.30;78.30;;;;;;7381241;19;20029;-71
2023/05/18 03:29:07;;;;;;;10.15;3.70;;;15.40;78.30;;;;;;7381073;19;20255;-71
2023/05/18 03:31:35;;;;;;;9.02;3.83;;;15.40;78.00;;;;;;7405148;19;20027;-71
2023/05/18 03:34:04;;;;;;;12.45;3.83;;;15.40;78.20;;;;;;7380506;19;20002;-70
2023/05/18 03:36:34;;;;;;;11.80;3.95;;;15.40;78.20;;;;;;7380185;19;20071;-71
2023/05/18 03:39:06;;;;;;;15.27;4.15;;;15.40;78.30;;;;;;7380574;19;20006;-71
2023/05/18 03:41:35;;;;;;;15.15;4.05;;;15.50;78.20;;;;;;7380635;19;20238;-71
2023/05/18 03:44:04;;;;;;;17.58;4.28;;;15.50;78.00;;;;;;7379930;19;20007;-71
2023/05/18 03:46:33;;;;;;;10.30;3.80;;;15.50;77.90;;;;;;7400050;19;20003;-71
2023/05/18 03:49:03;;;;;;;15.48;4.43;;;15.60;78.00;;;;;;7380053;19;20002;-71
2023/05/18 03:51:32;;;;;;;19.70;4.30;;;15.60;77.60;;;;;;7381039;19;20011;-70
2023/05/18 03:54:00;;;;;;;14.32;4.28;;;15.60;77.60;;;;;;7381207;19;20106;-72
2023/05/18 03:56:32;;;;;;;12.77;4.30;;;15.50;77.60;;;;;;7381555;19;20070;-72
2023/05/18 03:59:02;;;;;;;9.75;4.05;;;15.50;77.60;;;;;;7384139;19;20010;-72
2023/05/18 04:01:33;;;;;;;10.43;4.03;;;15.50;77.70;;;;;;7399413;19;20011;-71
2023/05/18 04:04:02;;;;;;;17.90;4.72;;;15.50;77.60;;;;;;7379100;19;20496;-71
2023/05/18 04:06:30;;;;;;;12.63;4.13;;;15.50;77.60;;;;;;7379186;19;20011;-72
2023/05/18 04:09:01;;;;;;;10.98;4.35;;;15.50;78.00;;;;;;7380096;19;20045;-71
2023/05/18 04:11:32;;;;;;;16.17;4.40;;;15.40;78.80;;;;;;7378931;19;20063;-71
2023/05/18 04:14:01;;;;;;;14.23;4.93;;;15.50;77.90;;;;;;7378056;19;20267;-71
2023/05/18 04:16:30;;;;;;;12.57;4.57;;;15.40;77.90;;;;;;7403819;19;20010;-72
2023/05/18 04:18:59;;;;;;;11.32;4.03;;;15.40;77.90;;;;;;7378821;19;20006;-71
2023/05/18 04:21:34;;;;;;;15.80;4.60;;;15.40;78.10;;;;;;7379417;19;20003;-72
2023/05/18 04:24:05;;;;;;;13.70;4.65;;;15.40;78.20;;;;;;7379614;19;20017;-71
2023/05/18 04:26:37;;;;;;;13.57;4.68;;;15.40;77.90;;;;;;7379593;19;20381;-70
2023/05/18 04:29:06;;;;;;;13.77;5.28;;;15.50;77.70;;;;;;7379636;19;20362;-71
2023/05/18 04:31:35;;;;;;;13.20;5.32;;;15.50;78.00;;;;;;7402901;19;20015;-70
2023/05/18 04:34:04;;;;;;;16.83;5.28;;;15.40;76.80;;;;;;7378273;19;20006;-70
2023/05/18 04:36:33;;;;;;;16.00;5.53;;;15.40;76.70;;;;;;7379141;19;20002;-71
2023/05/18 04:39:06;;;;;;;17.08;4.97;;;15.40;76.80;;;;;;7379365;19;20019;-70
2023/05/18 04:41:41;;;;;;;20.02;5.68;;;15.40;76.80;;;;;;7380694;19;20013;-70
2023/05/18 04:44:09;;;;;;;22.08;5.72;;;15.30;76.70;;;;;;7380634;19;20010;-71
2023/05/18 04:46:42;;;;;;;21.25;6.43;;;15.30;76.70;;;;;;7400702;19;20070;-71
2023/05/18 04:49:11;;;;;;;13.38;6.00;;;15.30;76.60;;;;;;7379891;19;20365;-71
2023/05/18 04:51:40;;;;;;;16.65;5.18;;;15.40;76.40;;;;;;7378474;19;20054;-71
2023/05/18 04:54:11;;;;;;;17.77;5.95;;;15.40;76.40;;;;;;7382688;19;20017;-70
2023/05/18 04:56:43;;;;;;;19.05;5.75;;;15.40;76.60;;;;;;7387952;19;20015;-72
2023/05/18 04:59:11;;;;;;;21.23;6.47;;;15.40;76.60;;;;;;7385901;19;20078;-71
2023/05/18 05:01:40;;;;;;;20.13;6.72;;;15.50;76.50;;;;;;7407370;19;20015;-71
2023/05/18 05:04:09;;;;;;;18.40;6.22;;;15.40;76.30;;;;;;7385100;19;20429;-71
2023/05/18 05:06:38;;;;;;;25.80;6.43;;;15.40;76.40;;;;;;7388167;19;20222;-72
2023/05/18 05:09:06;;;;;;;21.92;6.05;;;15.40;76.50;;;;;;7385737;19;20069;-71
2023/05/18 05:11:35;;;;;;;14.32;6.03;;;15.40;76.20;;;;;;7385971;19;20023;-71
2023/05/18 05:14:07;;;;;;;20.00;6.10;;;15.30;76.00;;;;;;7382632;19;20007;-71
2023/05/18 05:16:35;;;;;;;16.45;6.38;;;15.30;76.40;;;;;;7406856;19;20060;-71
2023/05/18 05:19:04;;;;;;;23.38;6.20;;;15.20;76.40;;;;;;7384453;19;20007;-70
2023/05/18 05:21:33;;;;;;;16.77;5.63;;;15.30;76.70;;;;;;7384905;19;20055;-71
2023/05/18 05:24:04;;;;;;;19.20;5.47;;;15.30;76.70;;;;;;7386613;19;20022;-71
2023/05/18 05:26:34;;;;;;;13.65;5.63;;;15.40;76.90;;;;;;7385213;19;20279;-71
2023/05/18 05:29:02;;;;;;;13.50;5.25;;;15.40;77.00;;;;;;7385081;19;20091;-70
2023/05/18 05:31:34;;;;;;;15.75;5.88;;;15.50;77.30;;;;;;7406276;19;20006;-70
2023/05/18 05:34:02;;;;;;;17.25;6.00;;;15.50;77.00;;;;;;7386036;19;20006;-71
2023/05/18 05:36:32;;;;;;;20.70;5.80;;;15.60;77.00;;;;;;7386243;19;20299;-71
2023/05/18 05:39:01;;;;;;;15.45;5.30;;;15.60;77.00;;;;;;7384859;19;20104;-71
2023/05/18 05:41:29;;;;;;;17.50;5.80;;;15.60;76.90;;;;;;7387647;19;20011;-71
2023/05/18 05:43:58;;;;;;;18.48;5.20;;;15.50;76.70;;;;;;7397891;19;20067;-72
2023/05/18 05:46:27;;;;;;;15.55;4.97;;;15.50;77.00;;;;;;7406746;19;20403;-71
2023/05/18 05:48:59;;;;;;;20.90;6.15;;;15.50;77.00;;;;;;7383945;19;20013;-72
2023/05/18 05:51:27;;;;;;;25.08;5.75;;;15.50;77.10;;;;;;7385271;19;20015;-72
2023/05/18 05:53:56;;;;;;;14.80;5.25;;;15.50;77.20;;;;;;7384193;19;20379;-71
2023/05/18 05:56:25;;;;;;;14.85;6.20;;;15.60;77.30;;;;;;7383772;19;20011;-70
2023/05/18 05:58:54;;;;;;;14.95;5.53;;;15.70;77.20;;;;;;7407739;19;20030;-72
2023/05/18 06:01:22;;;;;;;22.83;6.57;;;15.70;77.20;;;;;;7385228;19;20031;-72
2023/05/18 06:03:51;;;;;;;19.25;5.50;;;15.70;76.30;;;;;;7384095;19;20031;-71
2023/05/18 06:06:22;;;;;;;20.65;6.82;;;15.80;76.80;;;;;;7382262;19;20011;-71
2023/05/18 06:08:51;;;;;;;15.32;5.93;;;15.80;75.70;;;;;;7383120;19;20058;-72
2023/05/18 06:11:20;;;;;;;19.63;6.15;;;15.90;75.80;;;;;;7381868;19;20022;-72
2023/05/18 06:13:48;;;;;;;16.80;5.93;;;15.90;75.90;;;;;;7404259;19;20003;-72
2023/05/18 06:16:17;;;;;;;18.48;6.22;;;15.80;76.40;;;;;;7383812;19;20019;-72
2023/05/18 06:18:47;;;;;;;15.23;5.72;;;15.90;76.20;;;;;;7384265;19;20088;-71
2023/05/18 06:21:16;;;;;;;28.70;6.30;;;16.00;76.30;;;;;;7384184;19;20034;-71
2023/05/18 06:23:47;;;;;;;20.73;6.85;;;16.00;75.30;;;;;;7382240;19;20066;-71
2023/05/18 06:26:16;;;;;;;23.35;6.47;;;16.00;75.30;;;;;;7387729;19;20393;-71
2023/05/18 06:28:45;;;;;;;17.45;6.35;;;15.90;74.60;;;;;;7404924;19;20019;-71
2023/05/18 06:31:14;;;;;;;21.40;6.97;;;16.00;74.90;;;;;;7382218;19;20098;-71
2023/05/18 06:33:43;;;;;;;28.65;7.28;;;16.20;74.90;;;;;;7384304;19;20386;-72
2023/05/18 06:36:12;;;;;;;24.95;6.63;;;16.10;74.60;;;;;;7384819;19;20240;-71
2023/05/18 06:38:40;;;;;;;20.20;6.43;;;16.20;74.90;;;;;;7384916;19;20011;-72
2023/05/18 06:41:12;;;;;;;24.70;6.53;;;16.30;74.70;;;;;;7384101;19;20024;-72
2023/05/18 06:43:40;;;;;;;19.38;6.80;;;16.40;74.40;;;;;;7406083;19;20027;-72
2023/05/18 06:46:09;;;;;;;17.27;5.97;;;16.50;74.10;;;;;;7383309;19;20521;-72
2023/05/18 06:48:38;;;;;;;31.70;7.63;;;16.60;74.20;;;;;;7386991;19;20010;-72
2023/05/18 06:51:07;;;;;;;19.48;6.85;;;16.70;73.80;;;;;;7384195;19;20073;-71
2023/05/18 06:53:36;;;;;;;20.67;7.82;;;16.70;72.90;;;;;;7384362;19;19999;-71
2023/05/18 06:56:04;;;;;;;26.63;7.30;;;16.60;72.00;;;;;;7384196;19;20014;-70
2023/05/18 06:58:36;;;;;;;24.42;8.55;;;16.60;71.90;;;;;;7405577;19;20006;-70
2023/05/18 07:01:04;;;;;;;25.05;6.55;;;16.60;73.00;;;;;;7383718;19;20277;-70
2023/05/18 07:03:34;;;;;;;20.02;6.75;;;16.60;72.00;;;;;;7383436;19;20023;-70
2023/05/18 07:06:04;;;;;;;19.27;6.85;;;16.60;71.70;;;;;;7385154;19;20077;-70
2023/05/18 07:08:35;;;;;;;28.35;7.32;;;16.60;71.10;;;;;;7384116;19;20006;-70
2023/05/18 07:11:04;;;;;;;21.90;6.63;;;16.40;71.30;;;;;;7383604;19;20013;-71
2023/05/18 07:13:36;;;;;;;20.00;6.07;;;16.40;72.10;;;;;;7405512;19;20028;-71
2023/05/18 07:16:04;;;;;;;16.23;6.00;;;16.40;71.10;;;;;;7383267;19;20002;-73
2023/05/18 07:18:33;;;;;;;24.58;6.15;;;16.40;71.30;;;;;;7382383;19;20290;-72
2023/05/18 07:21:02;;;;;;;16.17;6.45;;;16.50;71.40;;;;;;7380657;19;20327;-73
2023/05/18 07:23:31;;;;;;;29.38;7.45;;;16.50;70.60;;;;;;7384041;19;20003;-72
2023/05/18 07:26:00;;;;;;;23.60;6.70;;;16.50;70.50;;;;;;7382877;19;20007;-74
2023/05/18 07:28:28;;;;;;;19.95;6.57;;;16.50;70.60;;;;;;7401474;19;20013;-74
2023/05/18 07:31:00;;;;;;;19.20;6.45;;;16.20;71.00;;;;;;7381157;19;20283;-74
2023/05/18 07:33:28;;;;;;;17.50;6.65;;;16.50;71.40;;;;;;7380594;19;20297;-73
2023/05/18 07:35:57;;;;;;;27.40;6.03;;;16.50;70.50;;;;;;7380470;19;20068;-74
2023/05/18 07:38:26;;;;;;;22.80;6.43;;;16.70;70.90;;;;;;7381037;19;20019;-73
2023/05/18 07:40:55;;;;;;;26.52;5.93;;;16.70;70.40;;;;;;7403262;19;20011;-74
2023/05/18 07:43:23;;;;;;;21.65;6.07;;;16.90;70.50;;;;;;7380985;19;20381;-74
2023/05/18 07:45:52;;;;;;;26.85;6.55;;;17.10;69.80;;;;;;7381092;19;20002;-73
2023/05/18 07:48:23;;;;;;;27.38;6.03;;;17.00;68.80;;;;;;7381076;19;20275;-74
2023/05/18 07:50:52;;;;;;;22.25;5.60;;;17.00;68.60;;;;;;7381100;19;20007;-73
2023/05/18 07:53:21;;;;;;;28.30;6.28;;;17.10;68.90;;;;;;7380251;19;20393;-73
2023/05/18 07:55:50;;;;;;;23.88;6.75;;;17.10;68.80;;;;;;7404369;19;20224;-74
2023/05/18 07:58:19;;;;;;;19.90;5.68;;;17.10;69.00;;;;;;7385717;19;20003;-73
2023/05/18 08:00:48;;;;;;;27.88;6.78;;;17.10;68.50;;;;;;7380986;19;20083;-73
2023/05/18 08:03:16;;;;;;;19.02;5.45;;;17.20;68.20;;;;;;7381124;19;20276;-73
2023/05/18 08:05:47;;;;;;;24.52;6.20;;;17.20;68.70;;;;;;7381425;19;20007;-74
2023/05/18 08:08:17;;;;;;;25.33;6.28;;;17.30;68.50;;;;;;7381014;19;20066;-73
2023/05/18 08:10:46;;;;;;;17.40;6.28;;;17.40;68.80;;;;;;7400688;19;20013;-74
2023/05/18 08:13:15;;;;;;;21.38;6.20;;;17.50;67.70;;;;;;7380732;19;19998;-75
2023/05/18 08:15:45;;;;;;;24.48;6.03;;;17.60;67.50;;;;;;7379467;19;20007;-74
2023/05/18 08:18:13;;;;;;;19.45;5.88;;;17.60;66.80;;;;;;7379714;19;20007;-74
2023/05/18 08:20:42;;;;;;;29.80;6.15;;;17.40;65.80;;;;;;7379977;19;20022;-74
2023/05/18 08:23:13;;;;;;;22.95;6.30;;;17.40;66.50;;;;;;7380285;19;20005;-74
2023/05/18 08:25:42;;;;;;;23.73;6.22;;;17.10;65.50;;;;;;7403381;19;20010;-74
2023/05/18 08:28:11;;;;;;;19.52;6.25;;;17.20;66.50;;;;;;7377255;19;20422;-73
2023/05/18 08:30:40;;;;;;;23.50;5.72;;;17.30;66.90;;;;;;7381373;19;20055;-73
2023/05/18 08:33:08;;;;;;;27.30;5.90;;;17.50;67.20;;;;;;7378667;19;20006;-73
2023/05/18 08:35:38;;;;;;;27.17;5.95;;;17.60;66.60;;;;;;7380512;19;20010;-74
2023/05/18 08:38:07;;;;;;;27.65;5.97;;;17.70;67.00;;;;;;7379172;19;20006;-73
2023/05/18 08:40:45;;;;;;;22.58;5.80;;;17.70;65.90;;;;;;7398752;19;20006;-73
2023/05/18 08:43:26;;;;;;;21.40;5.47;;;17.50;64.60;;;;;;7378621;19;20015;-74
2023/05/18 08:46:00;;;;;;;17.80;5.30;;;17.30;64.70;;;;;;7379314;19;20374;-73
2023/05/18 08:48:32;;;;;;;24.15;5.88;;;17.30;65.50;;;;;;7381911;19;20023;-73
2023/05/18 08:51:04;;;;;;;24.83;5.05;;;17.40;65.50;;;;;;7378969;19;20019;-73
2023/05/18 08:53:33;;;;;;;;;;;17.30;64.30;;;;;;7379080;19;20007;-73
2023/05/18 08:56:05;;;;;;;24.50;5.00;;;17.60;63.70;;;;;;7378558;19;19919;-72
2023/05/18 08:58:37;;;;;;;24.63;5.13;;;17.60;64.00;;;;;;7399822;19;20014;-72
2023/05/18 09:01:07;;;;;;;16.95;4.53;;;17.70;64.40;;;;;;7377946;19;20393;-72
2023/05/18 09:03:36;;;;;;;21.55;5.50;;;17.80;64.00;;;;;;7379131;19;20030;-72
2023/05/18 09:06:06;;;;;;;22.23;5.30;;;17.90;63.60;;;;;;7376832;19;20023;-72
2023/05/18 09:08:35;;;;;;;16.55;5.47;;;17.90;63.30;;;;;;7378123;19;20066;-72
2023/05/18 09:11:07;;;;;;;17.20;4.78;;;18.00;63.50;;;;;;7378120;19;20003;-73
2023/05/18 09:13:36;;;;;;;23.20;5.40;;;18.00;63.60;;;;;;7399198;19;20006;-72
2023/05/18 09:16:06;;;;;;;30.60;6.10;;;18.20;63.70;;;;;;7377105;19;20062;-73
2023/05/18 09:18:35;;;;;;;16.70;5.90;;;18.10;63.60;;;;;;7377476;19;20020;-73
2023/05/18 09:21:04;;;;;;;15.32;5.50;;;18.10;63.80;;;;;;7379422;19;20020;-73
2023/05/18 09:23:32;;;;;;;23.20;5.22;;;18.10;63.80;;;;;;7376388;19;20090;-72
2023/05/18 09:26:03;;;;;;;21.90;5.38;;;18.10;60.90;;;;;;7379871;19;20019;-71
2023/05/18 09:28:38;;;;;;;26.85;5.65;;;18.10;61.40;;;;;;7402229;19;20362;-72
2023/05/18 09:31:11;;;;;;;22.25;6.00;;;18.10;61.60;;;;;;7377655;19;20015;-72
2023/05/18 09:33:41;;;;;;;19.10;5.65;;;18.00;60.30;;;;;;7377699;19;20007;-71
2023/05/18 09:36:11;;;;;;;25.88;5.57;;;17.70;61.20;;;;;;7377795;19;20011;-72
2023/05/18 09:38:42;;;;;;;18.23;5.93;;;17.90;63.00;;;;;;7378665;19;20074;-73
2023/05/18 09:41:15;;;;;;;20.30;5.72;;;17.90;62.80;;;;;;7383317;19;20009;-73
2023/05/18 09:43:47;;;;;;;16.75;5.13;;;17.90;63.20;;;;;;7409563;19;20354;-73
2023/05/18 09:46:16;;;;;;;17.23;5.45;;;17.90;63.20;;;;;;7384248;19;20573;-73
2023/05/18 09:48:48;;;;;;;31.30;6.28;;;18.00;62.00;;;;;;7383675;19;20415;-73
2023/05/18 09:51:17;;;;;;;;;;;18.00;61.50;;;;;;7383094;19;20006;-73
2023/05/18 09:53:49;;;;;;;19.70;5.70;;;17.60;61.50;;;;;;7384578;19;19911;-74
2023/05/18 09:56:20;;;;;;;20.52;5.95;;;17.60;63.40;;;;;;7389474;19;20043;-74
2023/05/18 09:58:51;;;;;;;18.23;5.73;;;17.40;62.40;;;;;;7408772;19;20014;-72
2023/05/18 10:01:20;;;;;;;14.95;5.85;;;17.50;62.30;;;;;;7385151;19;20252;-72
2023/05/18 10:03:49;;;;;;;23.23;6.47;;;17.70;63.80;;;;;;7383315;19;20023;-74
2023/05/18 10:06:20;;;;;;;28.45;6.28;;;17.70;61.40;;;;;;7384153;19;20002;-72
2023/05/18 10:08:48;;;;;;;22.58;5.57;;;17.50;62.10;;;;;;7383967;19;20396;-74
2023/05/18 10:11:22;;;;;;;16.58;5.40;;;17.80;63.40;;;;;;7387331;19;20499;-73
2023/05/18 10:13:56;;;;;;;25.60;6.43;;;18.00;63.40;;;;;;7410252;19;20003;-72
2023/05/18 10:16:26;;;;;;;23.63;6.15;;;17.80;61.30;;;;;;7384263;19;20002;-73
2023/05/18 10:18:57;;;;;;;17.33;6.05;;;17.90;61.90;;;;;;7383533;19;20007;-72
2023/05/18 10:21:30;;;;;;;20.80;6.82;;;18.20;62.80;;;;;;7383750;19;20009;-72
2023/05/18 10:24:00;;;;;;;20.58;6.82;;;18.20;62.20;;;;;;7382134;19;20013;-73
2023/05/18 10:26:31;;;;;;;23.30;6.68;;;18.20;61.10;;;;;;7382804;19;20501;-73
2023/05/18 10:29:03;;;;;;;18.73;6.18;;;18.30;61.70;;;;;;7384541;19;20023;-73
2023/05/18 10:31:34;;;;;;;21.50;6.32;;;18.30;62.00;;;;;;7401315;19;20059;-73
2023/05/18 10:34:03;;;;;;;20.65;7.50;;;18.20;62.50;;;;;;7383404;19;20006;-73
2023/05/18 10:36:34;;;;;;;19.65;7.10;;;18.30;62.30;;;;;;7383275;19;20003;-73
2023/05/18 10:39:05;;;;;;;22.40;7.13;;;18.20;62.60;;;;;;7381794;19;20048;-72
2023/05/18 10:41:35;;;;;;;21.90;7.30;;;18.10;63.10;;;;;;7383184;19;20006;-73
2023/05/18 10:44:08;;;;;;;23.00;7.07;;;18.00;62.90;;;;;;7382447;19;20382;-74
2023/05/18 10:46:37;;;;;;;22.83;6.97;;;17.80;63.60;;;;;;7406520;19;20280;-73
2023/05/18 10:49:12;;;;;;;19.70;7.50;;;17.80;64.50;;;;;;7382178;19;20015;-73
2023/05/18 10:51:42;;;;;;;21.33;7.00;;;17.80;63.90;;;;;;7382088;19;20010;-73
2023/05/18 10:54:14;;;;;;;20.95;6.15;;;18.00;63.20;;;;;;7382254;19;20408;-72
2023/05/18 10:56:46;;;;;;;20.58;7.10;;;18.10;62.50;;;;;;7382851;19;19995;-72
2023/05/18 10:59:19;;;;;;;25.17;6.68;;;18.10;61.70;;;;;;7380055;19;20231;-72
2023/05/18 11:01:51;;;;;;;16.90;6.38;;;18.30;62.60;;;;;;7403494;19;20006;-72
2023/05/18 11:04:25;;;;;;;19.23;7.20;;;18.40;62.50;;;;;;7385236;19;20010;-72
2023/05/18 11:06:59;;;;;;;21.45;6.30;;;18.60;62.60;;;;;;7381315;19;20106;-72
2023/05/18 11:09:29;;;;;;;18.23;6.60;;;18.70;61.30;;;;;;7381701;19;20041;-72
2023/05/18 11:12:00;;;;;;;22.88;7.10;;;18.60;61.40;;;;;;7382189;19;20078;-73
2023/05/18 11:14:32;;;;;;;18.10;5.80;;;18.60;60.80;;;;;;7379738;19;20038;-72
2023/05/18 11:17:20;;;;;;;22.67;6.15;;;18.60;61.80;;;;;;7381902;19;20098;-73
2023/05/18 11:20:13;;;;;;;22.23;5.90;;;18.80;62.30;;;;;;7401812;19;20354;-73
2023/05/18 11:22:52;;;;;;;16.45;5.60;;;19.00;61.30;;;;;;7380687;19;19999;-72
2023/05/18 11:25:40;;;;;;;15.60;5.82;;;19.10;60.20;;;;;;7380805;19;20006;-73
2023/05/18 11:28:12;;;;;;;16.70;5.70;;;19.10;58.40;;;;;;7380197;19;19999;-72
2023/05/18 11:30:51;;;;;;;16.30;5.53;;;19.30;58.30;;;;;;7381595;19;20003;-73
2023/05/18 11:33:29;;;;;;;19.38;6.05;;;19.30;57.50;;;;;;7380549;19;20003;-73
2023/05/18 11:36:06;;;;;;;15.30;5.70;;;19.40;55.70;;;;;;7379567;19;20007;-72
2023/05/18 11:38:54;;;;;;;16.73;5.00;;;19.20;55.90;;;;;;7382763;19;20034;-70
2023/05/18 11:41:30;;;;;;;16.52;4.72;;;19.40;54.00;;;;;;7381176;19;20010;-72
2023/05/18 11:44:23;;;;;;;19.33;6.35;;;19.40;55.30;;;;;;7385080;19;20007;-72
2023/05/18 11:47:02;;;;;;;17.35;5.82;;;19.50;55.10;;;;;;7400411;19;20397;-72
2023/05/18 11:49:32;;;;;;;19.60;5.22;;;19.60;56.30;;;;;;7379640;19;20275;-72
2023/05/18 11:52:06;;;;;;;18.08;5.18;;;19.60;55.50;;;;;;7381487;19;19998;-71
2023/05/18 11:54:42;;;;;;;19.15;4.97;;;19.70;55.10;;;;;;7382302;19;19999;-71
2023/05/18 11:57:12;;;;;;;19.98;5.47;;;19.70;55.80;;;;;;7381026;19;20003;-72
2023/05/18 11:59:42;;;;;;;22.85;5.60;;;19.80;55.40;;;;;;7380177;19;20002;-71
2023/05/18 12:02:15;;;;;;;13.90;4.90;;;19.90;55.10;;;;;;7379112;19;20066;-72
2023/05/18 12:04:46;;;;;;;18.95;4.82;;;19.90;55.90;;;;;;7400194;19;20058;-72
2023/05/18 12:07:15;;;;;;;22.05;4.53;;;19.90;54.50;;;;;;7378946;19;20006;-72
2023/05/18 12:09:45;;;;;;;15.32;4.70;;;20.00;54.60;;;;;;7378927;19;20023;-73
2023/05/18 12:12:18;;;;;;;14.05;4.68;;;20.10;55.40;;;;;;7380090;19;20303;-73
2023/05/18 12:14:50;;;;;;;22.92;4.78;;;20.10;53.10;;;;;;7379181;19;20038;-76
2023/05/18 12:17:23;;;;;;;18.88;5.72;;;20.20;53.30;;;;;;7378465;19;19999;-71
2023/05/18 12:19:52;;;;;;;36.03;16.15;;;20.10;53.60;;;;;;7400642;19;20007;-72
2023/05/18 12:22:21;;;;;;;20.58;7.20;;;20.20;55.20;;;;;;7378407;19;20010;-72
2023/05/18 12:24:54;;;;;;;24.90;6.38;;;20.20;55.20;;;;;;7379997;19;20291;-71
2023/05/18 12:27:25;;;;;;;18.58;5.80;;;20.10;55.50;;;;;;7381621;19;20010;-73
2023/05/18 12:29:54;;;;;;;17.92;6.65;;;20.00;55.10;;;;;;7383836;19;20033;-71
2023/05/18 12:32:25;;;;;;;24.95;11.25;;;19.90;54.20;;;;;;7386175;19;20578;-71
2023/05/18 12:34:56;;;;;;;22.92;8.07;;;20.00;55.60;;;;;;7399926;19;20046;-72
2023/05/18 12:37:26;;;;;;;19.88;5.30;;;19.90;55.20;;;;;;7383067;19;20292;-72
2023/05/18 12:39:55;;;;;;;19.98;5.55;;;20.00;55.00;;;;;;7378148;19;20011;-72
2023/05/18 12:42:24;;;;;;;15.50;4.97;;;19.90;54.50;;;;;;7378202;19;20025;-72
2023/05/18 12:44:53;;;;;;;24.88;6.15;;;19.90;55.30;;;;;;7380591;19;20017;-72
2023/05/18 12:47:21;;;;;;;16.02;5.15;;;20.00;56.40;;;;;;7380197;19;20011;-72
2023/05/18 12:49:53;;;;;;;18.00;5.38;;;20.00;54.80;;;;;;7402392;19;20059;-73
2023/05/18 12:52:22;;;;;;;;;;;20.00;55.10;;;;;;7380715;19;20019;-72
2023/05/18 12:54:54;;;;;;;19.48;5.68;;;19.90;55.30;;;;;;7378099;19;19915;-72